Immagine casuale
Testata Regione Lazio ARSIAL SIARL

Ultima Misura Rilevata

Temperatura, Umidità, Pioggia, Pressione Radiazione Solare, Venti, Evapotraspirazione, ecc.
Temperature diurne e notturne Direzione vento Legenda
Prov Stazione Data TMin TMed TMax UMed Pioggia PMed
FR ALATRI Basciano 17/09/2019 16,7 22,7 32,8 66 0 1.018
FR ALVITO Az. Ist. S. Benedetto 17/09/2019 12,6 20 28,9 75 0 1.016
FR ANAGNI La Gloria 17/09/2019 13,4 20,6 31,1 71 0 1.016
FR ARPINO Vigne Piane 17/09/2019 16,5 21,1 29,8 69 0 1.019
FR BOVILLE ERNICA Sasso 17/09/2019 16 22,6 31,7 66 0 1.017
FR CECCANO C.da Passo del Cardinale 17/09/2019 11,7 20,8 31,4 75 0 ----
FR ESPERIA Modale 17/09/2019 14 21,3 31,9 73 0 1.015
FR PASTENA Acero 17/09/2019 10,7 19,7 29,7 79 0 1.016
FR PIGLIO Civitella 17/09/2019 13,2 20,5 31,1 68 0 1.014
FR PONTECORVO Melfi di Sotto 17/09/2019 13,3 21,4 32,3 75 0 ----
FR S. ELIA FIUMERAPIDO Portella 17/09/2019 15,4 22 31,3 71 0 1.016
FR S. GIORGIO A LIRI Porto 17/09/2019 13,2 21 32,3 79 0 1.013
FR SGURGOLA Campo Lungo 17/09/2019 11,6 20,7 31,5 73 0,2 ----
FR VALLECORSA Serbatoio comunale 17/09/2019 16,9 20,9 27,5 71 0 1.016
LT APRILIA Le Ferriere 17/09/2019 14,9 21,7 30,2 71 0 1.016
LT CISTERNA B.go Carso 17/09/2019 13,4 20,4 28,4 74 0 ----
LT CISTERNA Doganella di Ninfa 17/09/2019 14,3 21,5 31,7 71 0 1.016
LT CORI Portone 17/09/2019 16,6 22,4 31,1 63 0 1.015
LT FONDI Capratica 17/09/2019 16,3 22,1 28,8 79 0 1.017
LT FORMIA Loc. Gianola 17/09/2019 16,3 21,9 27,6 81 0 ----
LT ITRI Valle Quercia 17/09/2019 18,2 21,6 27,5 75 0 1.015
LT MAENZA Casacotta 17/09/2019 16 22,4 30,1 67 0 1.012
LT MINTURNO Pulcherini 17/09/2019 19,9 23,3 28,5 82 0 1.016
LT PONTINIA Cotarda 17/09/2019 12,5 21,8 32,3 73 0 1.018
LT SABAUDIA Acquaviva 17/09/2019 14,2 20,9 28,1 80 0 1.016
LT SONNINO Frasso 17/09/2019 19,2 24,1 31,6 69 0 1.016
RI ACCUMOLI Terracino 17/09/2019 13,7 18,4 24,5 67 0 1.017
RI BORGOVELINO Ponte Basso 17/09/2019 11,7 19,2 30,4 71 0 1.019
RI CANTALUPO S. Francesco 17/09/2019 12,6 20,4 28,9 71 0 ----
RI CASTEL DI TORA Monte di Tora 17/09/2019 10,8 18,7 29,2 72 0 1.016
RI CASTELNUOVO FARFA C. Spadone 17/09/2019 15,6 21,7 30,5 66 0 ----
RI CONFIGNI Portella 17/09/2019 15,8 21,6 28,6 58 0 1.015
RI FARA SABINA Canneto 17/09/2019 16,8 22,7 32,5 58 0 1.015
RI FARA SABINA Sant'Andrea 17/09/2019 15,5 22,2 30,5 59 0 ----
RI MONTELEONE S. Prato Camino 17/09/2019 13,9 20,8 30,8 64 0 1.019
RI MONTOPOLI IN SABINA Colle Arcone 17/09/2019 13,7 21,5 29,8 74 0 ----
RI MONTOPOLI IN SABINA Villa Caprola 17/09/2019 13,5 21,8 31,5 79 0 ----
RI POGGIO CATINO Pastine 17/09/2019 15,7 21,8 29,1 66 0 ----
RI POGGIO NATIVO Casali 17/09/2019 16,8 21,4 28,5 66 0 ----
RI RIETI Piana di Rieti 17/09/2019 9,7 20,6 31,4 60 0 1.018
RI SCANDRIGLIA Ponticelli 17/09/2019 15,7 21,1 28,2 66 0 ----
RM AGOSTA La Cisterna 17/09/2019 12,6 19,4 30,8 73 0 1.018
RM BRACCIANO Prato Pianciano 17/09/2019 13,1 21,1 30,8 70 0 1.017
RM CANALE MONTERANO Monte Virginio 17/09/2019 9,5 18,8 30,3 74 0 1.017
RM CERVETERI Campo di Mare 17/09/2019 14,3 21,2 26,1 76 0 ----
RM CIVITELLA S.PAOLO Le Cese 17/09/2019 15,1 21,9 31,5 68 0 1.015
RM FIUMICINO Maccarese 17/09/2019 12,7 20,5 26,9 87 0,5 1.016
RM FIUMICINO Testa di Lepre 17/09/2019 15,6 22,2 29,9 71 0 ----
RM FORMELLO Perazzeta 17/09/2019 15,6 21,9 29,5 71 0 ----
RM FRASCATI Prata Porci 17/09/2019 13,8 21,6 30,7 65 0 1.016
RM GENAZZANO Coop. La Sonnina 17/09/2019 14,4 21,1 29,7 64 0 1.016
RM GROTTAFERRATA Valle Marciana 17/09/2019 15,7 21,2 29 62 0 1.016
RM LADISPOLI Palo Laziale 17/09/2019 N.D. N.D. N.D. 85 N.D. N.D.
RM LICENZA Colle Franco 17/09/2019 13,1 19,7 30,4 66 0 1.016
RM MARCELLINA V. Campetella 17/09/2019 14,7 21,5 30,3 70 0 ----
RM MARINO Gotto d'Oro 17/09/2019 15,7 22,2 29,6 73 0 1.017
RM MONTECOMPATRI Colle Mattia 17/09/2019 14,4 21,5 30,9 63 0 1.017
RM MONTECOMPATRI Pantano Borghese 17/09/2019 10,1 20,4 32,1 70 0 1.014
RM MONTELIBRETTI Bruciati 17/09/2019 12,8 21,3 32,1 67 0 ----
RM MONTEPORZIO Camaldoli 17/09/2019 13,2 18,8 26,7 68 0 1.017
RM MONTEROTONDO Grotta Marozza 17/09/2019 13,5 21,7 30,8 67 0 1.016
RM PALOMBARA Fonte Grande 17/09/2019 12,4 20,6 30,9 68 0 ----
RM ROMA Capocotta 17/09/2019 N.D. N.D. N.D. N.D. N.D. ----
RM ROMA Ponte di Nona 17/09/2019 14,6 22,5 30,5 69 0 1.016
RM ROMA Via Lanciani 38 17/09/2019 17,1 23,4 29,3 64 0 1.015
RM S. GREGORIO C. Faustiniano 17/09/2019 16,6 22 30,9 56 0 1.013
RM VELLETRI Cantina Sperimentale 17/09/2019 14,7 20,9 29,5 62 0 1.013
RM VELLETRI Prato Lungo 17/09/2019 15 21,2 28,9 64 0 ----
RM ZAGAROLO Santa Apollara 17/09/2019 15,8 22,2 30,4 61 0 ----
VT ACQUAPENDENTE Falconiera 17/09/2019 10,8 19,3 28,5 79 0 1.017
VT BAGNOREGIO Castell Cellesi 17/09/2019 14,6 20,8 28,2 69 0 ----
VT BASSANO R. Piano Mola 17/09/2019 16,7 21,2 29,5 66 0 1.017
VT BLERA Puntoni 17/09/2019 13 20,5 28,2 73 0 1.016
VT BOLSENA Capone 17/09/2019 14,4 21,9 32,2 73 0 1.016
VT BOLSENA Rentica 17/09/2019 14,3 20,3 27,9 77 0 ----
VT CANINO Diga Timone 17/09/2019 13,4 20,6 28,4 82 0 1.019
VT CANINO Pianacce 17/09/2019 13 21 28 81 0 1.016
VT CANINO San Valeriano 17/09/2019 15,4 21,4 27,6 78 0 ----
VT CELLENO Acquaforte 17/09/2019 12,5 20,3 28,5 77 0 ----
VT CORCHIANO Pantalone 17/09/2019 9,9 20,3 32,3 71 0 1.017
VT FARNESE Gressa 17/09/2019 12,9 19,6 26,4 70 0 ----
VT FARNESE Pian di Sala 17/09/2019 8,2 18,4 28,4 82 0 ----
VT GROTTE DI CASTRO Borghetto 17/09/2019 13,2 20 29,1 79 0 1.016
VT GROTTE DI CASTRO Purgatorio 17/09/2019 12,4 20,2 29,9 79 0 1.015
VT LATERA Centro Florovivaistico 17/09/2019 9,3 19,2 30,3 71 0 1.018
VT MONTALTO Le Murelle 17/09/2019 15,7 21,6 26,4 84 0 1.016
VT MONTALTO Pescia Romana 17/09/2019 15,2 22 28 83 0 1.016
VT MONTEFIASCONE Commenda 17/09/2019 13,5 20,8 29 77 0 ----
VT RONCIGLIONE Ponterotto 17/09/2019 11,8 20 29 66 0 ----
VT SORIANO CIMINO Pantane 17/09/2019 9,1 19,2 31,8 74 0 1.018
VT SORIANO CIMINO Poggio di Chia 17/09/2019 11,7 20,1 30 76 0 ----
VT TARQUINIA Portaccia 17/09/2019 15,4 21,7 27,2 85 0 ----
VT TUSCANIA Montebello 17/09/2019 12,6 20,5 27,9 83 0 ----
VT VETRALLA Marchionato 17/09/2019 13,6 20,3 27,8 75 0 ----
VT VITERBO Pisello 17/09/2019 14 20,6 27,3 80 0 ----
N.D. = Dati Non Disponibili
---- = Sensore non presente

Le misure esposte sono grezze, ovvero non sono state validate.